Latest Weather Observations for Cape Naturaliste

IDW60801

Issued at 10:13 pm WST Wednesday 8 July 2020 (issued every 10 minutes, with the page automatically refreshed every 10 minutes)

About weather observations | Map of weather stations | Latest weather observations for WA | Other Formats
Station Details ID: 009519 Name: CAPE NATURALISTE Lat: -33.54 Lon: 115.02 Height: 109.0 m
Data from the previous 72 hours. | See also: Recent months at Cape Naturaliste
Date/Time
WST
Temp
°C
App
Temp
°C
Dew
Point
°C
Rel
Hum
%
Delta-T
°C
Wind Press
QNH
hPa
Press
MSL
hPa
Rain since
9am
mm
Dir  Spd
km/h
Gust
km/h
Spd
kts
Gust
kts
08/10:00pm 10.2 5.5 7.6 84 1.2 SSE 22 30 12 16 1024.9 1024.9 0.6
08/09:30pm 10.0 5.5 7.1 82 1.4 SSE 20 26 11 14 1024.8 1024.8 0.6
08/09:00pm 10.3 5.4 7.0 80 1.6 SSE 22 26 12 14 1024.6 1024.6 0.6
08/08:30pm 9.9 5.5 7.2 83 1.3 SSE 20 26 11 14 1024.3 1024.3 0.6
08/08:00pm 10.1 5.3 7.3 83 1.3 SSE 22 26 12 14 1024.1 1024.1 0.6
08/07:30pm 10.2 5.1 7.8 85 1.2 SSE 24 30 13 16 1023.9 1023.9 0.6
08/07:00pm 10.5 6.0 8.6 88 0.9 SSE 22 28 12 15 1023.9 1023.9 0.6
08/06:30pm 10.5 6.0 8.6 88 0.9 SSE 22 28 12 15 1023.8 1023.8 0.6
08/06:00pm 10.7 6.6 8.8 88 0.9 SSE 20 24 11 13 1023.5 1023.5 0.6
08/05:30pm 10.9 6.9 9.0 88 0.9 SSE 20 28 11 15 1023.5 1023.5 0.6
08/05:00pm 11.5 7.6 9.6 88 1.0 S 20 28 11 15 1023.4 1023.4 0.6
08/04:30pm 12.0 7.9 10.2 89 0.9 S 22 30 12 16 1023.5 1023.5 0.6
08/04:00pm 12.3 7.9 10.4 88 1.0 S 24 35 13 19 1023.3 1023.3 0.4
08/03:30pm 13.0 9.0 10.4 84 1.4 S 22 39 12 21 1023.1 1023.1 0.0
08/03:00pm 13.9 9.8 10.1 78 2.0 S 22 33 12 18 1023.1 1023.1 0.0
08/02:30pm 14.4 9.7 9.2 71 2.7 SSW 24 33 13 18 1023.0 1023.0 0.0
08/02:00pm 14.8 9.5 9.8 72 2.6 SSW 28 44 15 24 1022.7 1022.7 0.0
08/01:30pm 14.4 10.6 9.8 74 2.4 S 20 32 11 17 1023.2 1023.2 0.0
08/01:12pm 15.8 10.3 9.0 64 3.5 SSW 28 41 15 22 1023.0 1023.0 0.0
08/01:00pm 17.3 14.3 7.9 54 4.8 SSW 13 20 7 11 1023.2 1023.2 0.0
08/12:30pm 16.5 13.0 7.2 54 4.6 SSW 15 24 8 13 1023.6 1023.6 0.0
08/12:00pm 16.0 12.5 7.2 56 4.4 SSE 15 24 8 13 1024.0 1024.0 0.0
08/11:30am 15.8 12.4 7.8 59 4.0 S 15 22 8 12 1024.4 1024.4 0.0
08/11:00am 14.6 11.6 7.6 63 3.5 SSE 13 20 7 11 1024.5 1024.5 0.0
08/10:30am 16.3 12.9 7.5 56 4.4 S 15 20 8 11 1024.5 1024.5 0.0
08/10:00am 14.5 10.2 7.8 64 3.3 S 20 30 11 16 1024.4 1024.4 0.0
08/09:30am 13.6 8.9 7.6 67 3.0 SSW 22 32 12 17 1024.0 1024.0 0.0
08/09:00am 13.2 9.2 8.1 71 2.5 SW 19 30 10 16 1023.8 1023.8 3.8
08/08:30am 13.0 7.3 8.5 74 2.3 SSW 28 37 15 20 1023.5 1023.5 3.8
08/08:06am 12.7 7.1 8.6 76 2.1 SSW 28 46 15 25 1023.1 1023.1 3.8
08/08:00am 12.6 7.9 9.2 80 1.7 SSW 24 43 13 23 1022.9 1022.9 3.8
08/07:30am 11.9 6.5 8.2 78 1.8 S 26 39 14 21 1022.5 1022.5 3.6
08/07:00am 11.9 6.8 7.8 76 2.0 SSW 24 32 13 17 1022.2 1022.2 3.6
08/06:30am 11.7 6.3 8.0 78 1.8 SSW 26 33 14 18 1021.8 1021.8 3.6
08/06:00am 11.8 8.2 9.7 87 1.1 SSW 19 28 10 15 1021.7 1021.7 3.6
08/05:30am 11.9 7.7 9.6 86 1.2 SSW 22 35 12 19 1021.7 1021.7 3.2
08/05:00am 12.2 8.9 9.4 83 1.4 SW 17 24 9 13 1021.6 1021.6 3.2
08/04:35am 13.6 7.7 8.9 73 2.4 SW 30 48 16 26 1021.4 1021.4 2.6
08/04:30am 13.6 7.7 7.4 66 3.0 SW 28 37 15 20 1021.4 1021.4 2.6
08/04:00am 12.9 8.5 7.4 69 2.7 SW 20 28 11 15 1021.5 1021.5 2.6
08/03:48am 13.0 7.0 7.2 68 2.8 SW 28 46 15 25 1021.7 1021.7 2.6
08/03:30am 12.6 7.8 7.5 71 2.5 SW 22 37 12 20 1021.5 1021.5 2.6
08/03:00am 12.8 6.7 8.1 73 2.3 SW 30 37 16 20 1021.6 1021.6 2.6
08/02:30am 12.6 5.9 7.3 70 2.6 SW 32 43 17 23 1021.4 1021.4 2.6
08/02:12am 12.0 6.0 8.5 79 1.7 WSW 30 48 16 26 1021.6 1021.6 2.6
08/02:00am 12.7 5.9 7.6 71 2.5 SW 33 50 18 27 1021.5 1021.5 2.6
08/01:48am 13.7 7.5 7.9 68 2.9 SW 30 50 16 27 1021.2 1021.2 2.6
08/01:30am 13.4 6.2 5.8 60 3.6 SW 33 41 18 22 1021.2 1021.2 2.6
08/01:00am 13.3 6.1 5.9 61 3.5 SW 33 44 18 24 1021.1 1021.1 2.6
08/12:47am 13.4 6.4 6.0 61 3.5 SW 32 50 17 27 1021.2 1021.2 2.6
08/12:30am 13.5 5.8 5.4 58 3.8 SW 35 44 19 24 1021.2 1021.2 2.6
08/12:00am 13.7 6.4 7.2 65 3.2 SW 35 48 19 26 1021.2 1021.2 2.6
 
Date/Time
WST
Temp
°C
App
Temp
°C
Dew
Point
°C
Rel
Hum
%
Delta-T
°C
Wind Press
QNH
hPa
Press
MSL
hPa
Rain since
9am
mm
Dir  Spd
km/h
Gust
km/h
Spd
kts
Gust
kts
07/11:30pm 13.4 6.0 4.8 56 4.0 SW 33 46 18 25 1021.2 1021.2 2.6
07/11:00pm 13.3 5.9 5.0 57 3.9 SW 33 46 18 25 1021.3 1021.3 2.6
07/10:30pm 13.4 5.0 5.8 60 3.6 SW 39 52 21 28 1021.0 1021.0 2.6
07/10:11pm 13.6 5.2 5.7 59 3.7 SW 39 57 21 31 1021.0 1021.0 2.6
07/10:00pm 13.5 5.4 5.4 58 3.8 SW 37 50 20 27 1021.2 1021.2 2.6
07/09:30pm 13.5 4.5 4.4 54 4.2 SW 41 56 22 30 1021.0 1021.0 2.6
07/09:00pm 13.7 4.6 5.8 59 3.7 SW 43 57 23 31 1020.7 1020.7 2.6
07/08:30pm 13.4 5.2 6.7 64 3.2 SW 39 50 21 27 1020.5 1020.4 2.6
07/08:00pm 13.3 4.8 6.9 65 3.1 SW 41 52 22 28 1020.3 1020.2 2.6
07/07:35pm 13.1 4.4 7.8 70 2.6 SW 43 61 23 33 1020.0 1019.9 2.6
07/07:30pm 13.2 4.4 8.1 71 2.5 SW 44 61 24 33 1019.9 1019.8 2.6
07/07:03pm 12.4 4.4 9.1 80 1.7 SW 41 61 22 33 1019.7 1019.6 2.6
07/07:00pm 12.5 5.4 9.5 82 1.5 SW 37 52 20 28 1019.8 1019.7 2.6
07/06:30pm 12.4 6.3 10.6 89 0.9 WSW 33 54 18 29 1019.7 1019.6 2.4
07/06:17pm 13.0 7.8 11.6 91 0.7 WSW 30 48 16 26 1019.8 1019.7 1.6
07/06:00pm 12.9 5.9 11.3 90 0.8 WSW 39 54 21 29 1019.7 1019.6 1.6
07/05:30pm 13.5 6.2 11.6 88 1.0 WSW 41 57 22 31 1019.5 1019.4 1.4
07/05:14pm 14.7 8.3 10.7 77 2.1 W 35 59 19 32 1019.4 1019.3 0.4
07/05:00pm 14.7 8.4 11.1 79 1.9 W 35 48 19 26 1019.5 1019.4 0.4
07/04:45pm 16.0 10.3 11.2 73 2.6 W 32 50 17 27 1019.4 1019.3 0.4
07/04:30pm 15.8 10.2 8.8 63 3.6 WNW 28 39 15 21 1019.4 1019.3 0.4
07/04:00pm 16.1 9.6 8.3 60 4.0 W 32 43 17 23 1019.4 1019.3 0.4
07/03:30pm 16.7 11.4 9.9 64 3.6 W 28 35 15 19 1019.4 1019.3 0.4
07/03:00pm 16.2 10.0 9.4 64 3.5 W 32 41 17 22 1019.5 1019.4 0.4
07/02:30pm 16.3 11.3 11.0 71 2.9 W 28 35 15 19 1019.6 1019.5 0.4
07/02:00pm 14.9 11.2 12.8 87 1.2 WNW 24 32 13 17 1019.8 1019.7 0.4
07/01:30pm 14.2 8.9 11.4 83 1.5 NW 30 41 16 22 1020.1 1020.0 0.2
07/01:00pm 15.8 10.3 9.2 65 3.4 W 28 39 15 21 1020.4 1020.3 0.2
07/12:30pm 17.0 11.7 8.4 57 4.4 W 26 35 14 19 1020.6 1020.5 0.2
07/12:00pm 15.4 8.6 7.7 60 3.8 W 33 43 18 23 1021.0 1021.0 0.2
07/11:30am 16.4 10.3 8.4 59 4.1 W 30 39 16 21 1021.4 1021.4 0.2
07/11:00am 14.7 9.1 8.9 68 3.0 W 28 37 15 20 1021.7 1021.7 0.0
07/10:30am 14.5 8.0 8.0 65 3.3 WSW 32 43 17 23 1021.6 1021.6 0.0
07/10:00am 13.8 7.9 7.3 65 3.2 WSW 28 43 15 23 1021.5 1021.5 0.0
07/09:49am 13.9 7.6 7.4 65 3.2 W 30 48 16 26 1021.6 1021.6 0.0
07/09:30am 13.7 8.2 7.5 66 3.1 WNW 26 39 14 21 1021.3 1021.3 0.0
07/09:00am 13.5 7.2 7.5 67 2.9 WSW 30 43 16 23 1021.2 1021.2 6.2
07/08:30am 13.4 6.9 8.0 70 2.7 WSW 32 41 17 22 1020.9 1020.9 6.2
07/08:00am 13.5 6.1 6.8 64 3.2 WSW 35 48 19 26 1020.5 1020.4 6.2
07/07:30am 12.9 7.3 7.1 68 2.8 WSW 26 41 14 22 1020.3 1020.2 6.2
07/07:00am 13.4 6.1 5.3 58 3.8 W 33 48 18 26 1020.1 1020.0 6.2
07/06:30am 13.6 7.9 6.7 63 3.3 W 26 35 14 19 1019.7 1019.6 6.2
07/06:00am 13.1 6.2 7.1 67 2.9 WSW 33 43 18 23 1019.2 1019.1 6.2
07/05:30am 13.6 7.3 7.2 65 3.1 WSW 30 39 16 21 1019.2 1019.1 6.2
07/05:00am 13.6 5.8 6.5 62 3.4 WSW 37 54 20 29 1019.0 1018.9 6.2
07/04:30am 13.7 6.7 6.8 63 3.4 WSW 33 43 18 23 1018.8 1018.8 6.2
07/04:00am 13.7 6.5 7.5 66 3.1 WSW 35 52 19 28 1018.7 1018.7 6.2
07/03:30am 13.5 5.7 6.6 63 3.3 W 37 54 20 29 1018.8 1018.8 6.2
07/03:00am 13.6 5.8 8.2 70 2.7 W 39 52 21 28 1018.5 1018.5 6.2
07/02:33am 13.2 5.1 8.5 73 2.4 WSW 41 59 22 32 1018.2 1018.2 6.2
07/02:30am 13.2 5.6 8.9 75 2.2 WSW 39 54 21 29 1018.2 1018.2 6.2
07/02:00am 12.9 5.3 9.0 77 2.0 WSW 39 54 21 29 1018.2 1018.2 6.2
07/01:30am 13.5 5.0 9.2 75 2.2 W 44 61 24 33 1017.8 1017.8 6.2
07/01:19am 13.0 5.5 9.4 79 1.8 WSW 39 57 21 31 1017.9 1017.9 6.2
07/01:00am 13.9 5.4 8.5 70 2.7 WSW 43 56 23 30 1017.9 1017.9 6.2
07/12:30am 13.9 5.5 9.5 75 2.3 W 44 63 24 34 1017.9 1017.9 6.2
07/12:13am 13.7 4.1 9.6 76 2.1 W 50 70 27 38 1017.5 1017.5 6.2
07/12:00am 14.0 4.8 9.4 74 2.4 WSW 48 61 26 33 1017.6 1017.6 6.2
 
Date/Time
WST
Temp
°C
App
Temp
°C
Dew
Point
°C
Rel
Hum
%
Delta-T
°C
Wind Press
QNH
hPa
Press
MSL
hPa
Rain since
9am
mm
Dir  Spd
km/h
Gust
km/h
Spd
kts
Gust
kts
06/11:30pm 14.1 4.6 9.7 75 2.3 WSW 50 61 27 33 1017.5 1017.5 6.2
06/11:00pm 14.0 4.2 8.8 71 2.6 WSW 50 63 27 34 1017.3 1017.3 6.2
06/10:31pm 13.4 3.5 9.6 78 2.0 W 52 70 28 38 1017.2 1017.2 6.2
06/10:30pm 13.4 3.1 9.6 78 2.0 W 54 70 29 38 1017.2 1017.2 6.2
06/10:00pm 13.6 5.6 10.6 82 1.6 W 43 65 23 35 1016.9 1016.9 6.2
06/09:33pm 13.3 3.6 10.3 82 1.6 W 52 76 28 41 1016.9 1016.9 6.2
06/09:30pm 13.3 4.4 10.5 83 1.5 W 48 65 26 35 1017.0 1017.0 6.2
06/09:21pm 13.9 4.8 11.2 84 1.4 W 50 69 27 37 1017.1 1017.1 6.2
06/09:00pm 13.9 4.3 10.9 82 1.6 WSW 52 67 28 36 1016.7 1016.7 6.2
06/08:45pm 13.6 4.4 11.0 84 1.4 W 50 69 27 37 1016.7 1016.7 6.2
06/08:30pm 13.5 4.8 11.4 87 1.1 W 48 65 26 35 1016.6 1016.6 6.2
06/08:02pm 13.5 4.9 11.6 88 1.0 W 48 67 26 36 1016.2 1016.2 6.2
06/08:00pm 13.5 4.5 11.7 89 1.0 W 50 67 27 36 1016.3 1016.3 6.2
06/07:30pm 13.4 3.6 11.3 87 1.1 W 54 72 29 39 1016.0 1016.0 5.8
06/07:00pm 13.1 3.2 11.2 88 1.0 W 54 74 29 40 1015.5 1015.5 5.8
06/06:30pm 13.4 3.6 11.3 87 1.1 W 54 72 29 39 1015.1 1015.1 5.4
06/06:08pm 14.5 5.4 11.1 80 1.8 W 50 69 27 37 1014.8 1014.8 5.2
06/06:00pm 14.0 3.8 10.0 77 2.1 W 54 69 29 37 1014.7 1014.7 5.2
06/05:30pm 14.3 4.6 10.5 78 2.0 W 52 72 28 39 1014.2 1014.2 5.2
06/05:23pm 14.7 4.8 11.1 79 1.9 W 54 72 29 39 1014.1 1014.1 5.2
06/05:00pm 14.5 3.9 10.1 75 2.3 W 56 70 30 38 1013.8 1013.8 5.2
06/04:30pm 13.8 3.9 9.8 77 2.1 W 52 72 28 39 1013.4 1013.4 5.2
06/04:01pm 14.7 4.3 10.7 77 2.1 W 56 74 30 40 1013.3 1013.3 5.0
06/04:00pm 14.6 3.9 10.4 76 2.2 W 57 74 31 40 1013.2 1013.2 5.0
06/03:40pm 15.1 4.6 10.3 73 2.5 W 56 74 30 40 1012.9 1012.9 5.0
06/03:30pm 15.5 5.1 10.7 73 2.6 W 56 72 30 39 1012.7 1012.6 5.0
06/03:17pm 15.5 5.0 10.3 71 2.7 W 56 78 30 42 1012.5 1012.4 5.0
06/03:00pm 15.4 3.8 9.7 69 3.0 W 61 76 33 41 1012.3 1012.2 5.0
06/02:31pm 15.6 4.9 10.4 71 2.8 W 57 76 31 41 1012.0 1011.9 5.0
06/02:30pm 15.8 5.2 10.8 72 2.7 W 57 72 31 39 1012.0 1011.9 5.0
06/02:02pm 15.9 5.9 10.9 72 2.7 W 54 72 29 39 1011.7 1011.6 5.0
06/02:00pm 15.9 6.0 11.1 73 2.6 W 54 70 29 38 1011.7 1011.6 5.0
06/01:30pm 14.7 6.1 11.5 81 1.7 W 48 69 26 37 1011.6 1011.5 5.0
06/01:08pm 14.6 5.1 11.2 80 1.8 W 52 70 28 38 1011.6 1011.5 4.8
06/01:00pm 14.1 4.1 10.9 81 1.7 W 54 69 29 37 1011.6 1011.5 4.8
06/12:30pm 14.5 5.5 11.7 83 1.5 W 50 72 27 39 1011.8 1011.7 4.6
06/12:00pm 14.2 4.6 12.1 87 1.1 W 54 72 29 39 1011.8 1011.7 4.6
06/11:40am 14.2 6.1 11.9 86 1.2 WNW 46 67 25 36 1011.9 1011.8 4.6
06/11:30am 13.5 5.1 11.2 86 1.2 W 46 59 25 32 1012.0 1011.9 4.6
06/11:00am 13.5 6.7 12.1 91 0.8 WNW 39 56 21 30 1011.9 1011.8 3.8
06/10:57am 13.3 6.1 11.9 91 0.8 NW 41 56 22 30 1011.9 1011.8 3.8
06/10:42am 12.7 4.6 10.9 89 0.9 NW 44 63 24 34 1011.9 1011.8 1.6
06/10:30am 12.6 4.7 10.8 89 0.9 NW 43 56 23 30 1012.1 1012.0 1.2
06/10:00am 14.1 4.1 10.9 81 1.7 NW 54 72 29 39 1011.7 1011.6 0.0
06/09:51am 14.7 4.7 10.7 77 2.1 NW 54 72 29 39 1011.5 1011.4 0.0
06/09:30am 13.9 4.4 9.7 76 2.2 NW 50 65 27 35 1011.6 1011.5 0.0
06/09:00am 13.6 2.4 8.4 71 2.6 NW 57 82 31 44 1011.4 1011.3 20.2
06/08:30am 13.1 2.2 9.7 80 1.7 NW 57 80 31 43 1011.0 1010.9 20.0
06/08:00am 13.7 3.5 11.4 86 1.2 NW 56 85 30 46 1011.0 1010.9 20.0
06/07:53am 13.5 2.4 10.1 80 1.8 NW 59 85 32 46 1011.0 1010.9 20.0
06/07:52am 14.2 3.8 11.2 82 1.6 NW 57 85 31 46 1010.9 1010.8 20.0
06/07:30am 15.0 6.4 10.4 74 2.4 NW 46 65 25 35 1010.8 1010.7 19.8
06/07:00am 14.0 5.3 11.2 83 1.5 NW 48 67 26 36 1010.7 1010.6 19.8
06/06:44am 13.2 4.0 9.6 79 1.8 NW 48 76 26 41 1010.8 1010.7 19.8
06/06:43am 13.3 4.0 9.0 75 2.2 NW 48 76 26 41 1010.6 1010.5 19.6
06/06:30am 13.9 5.6 9.9 77 2.1 NW 44 65 24 35 1010.8 1010.7 19.4
06/06:16am 15.2 6.9 9.3 68 3.1 NW 43 61 23 33 1010.7 1010.6 19.4
06/06:00am 15.1 7.2 9.2 68 3.0 NW 41 56 22 30 1010.6 1010.5 19.4
06/05:30am 14.8 7.2 9.2 69 2.9 NW 39 52 21 28 1010.8 1010.7 19.4
06/05:00am 14.6 8.0 10.0 74 2.4 NW 35 48 19 26 1010.8 1010.7 19.4
06/04:30am 14.1 7.5 8.5 69 2.8 NW 33 48 18 26 1011.0 1010.9 19.4
06/04:00am 14.2 7.5 9.8 75 2.3 WNW 35 52 19 28 1011.1 1011.0 19.4
06/03:30am 14.8 8.1 9.8 72 2.6 NW 35 50 19 27 1011.2 1011.1 19.4
06/03:00am 14.6 8.3 9.6 72 2.6 NW 33 44 18 24 1011.1 1011.0 19.4
06/02:30am 14.4 8.0 10.8 79 1.9 NW 35 46 19 25 1011.1 1011.0 19.4
06/02:09am 13.9 8.6 11.1 83 1.5 NW 30 48 16 26 1010.9 1010.8 19.4
06/02:00am 14.0 10.4 12.0 88 1.1 NW 22 32 12 17 1010.6 1010.5 19.4
06/01:30am 12.4 8.0 10.3 87 1.1 NNW 24 33 13 18 1011.3 1011.2 19.4
06/01:15am 12.9 6.3 10.1 83 1.4 NNW 35 54 19 29 1011.5 1011.4 19.2
06/01:00am 14.2 8.7 12.6 90 0.9 NNW 33 46 18 25 1011.3 1011.2 19.2
06/12:35am 13.6 8.1 11.7 88 1.0 NNW 32 50 17 27 1011.4 1011.3 19.2
06/12:30am 14.1 8.2 12.3 89 1.0 NNW 35 50 19 27 1011.3 1011.2 19.2
06/12:10am 15.2 7.5 12.0 81 1.7 NNW 44 63 24 34 1011.4 1011.3 18.2
06/12:00am 15.2 7.5 11.4 78 2.0 N 43 54 23 29 1011.2 1011.1 18.2
 
Date/Time
WST
Temp
°C
App
Temp
°C
Dew
Point
°C
Rel
Hum
%
Delta-T
°C
Wind Press
QNH
hPa
Press
MSL
hPa
Rain since
9am
mm
Dir  Spd
km/h
Gust
km/h
Spd
kts
Gust
kts
05/11:30pm 14.9 7.6 11.5 80 1.8 N 41 56 22 30 1011.7 1011.6 18.2
05/11:00pm 14.3 7.4 11.6 84 1.5 N 39 54 21 29 1011.4 1011.3 18.2
05/10:35pm 14.2 6.5 11.4 83 1.5 N 43 61 23 33 1012.2 1012.1 18.0
05/10:30pm 14.0 6.6 11.2 83 1.5 N 41 56 22 30 1012.2 1012.1 18.0

Other formats

Comma delimited format used in spreadsheet applications
http://www.bom.gov.au/fwo/IDW60801/IDW60801.94600.axf

JavaScript Object Notation format (JSON) in row-major order
http://www.bom.gov.au/fwo/IDW60801/IDW60801.94600.json

Data quality

Most of these data are generated automatically and are frequently updated. Quality checks on data are not normally performed. It is possible for incorrect values to appear. Refer to information at About Latest Weather Observations and please check the disclaimer before using these data.